EGNX

East Midlands Airport

Nottingham, United Kingdom
METAR EGNX 151320Z 34017KT 9999 FEW024 06/02 Q1002
Observed Flight Rules
Dec-15 @ 13:20 UTC (45 minutes ago) Visual Flight Rules
Wind Visibility Clouds
340° at 17 knots 10,000+ meters
  • Few at 2,400' AGL
Temperatures Readings
Current 6°C / 43°F
Dewpoint 2°C / 36°F
Humidity 76%
Altimeter 29.59" Hg
Pressure 1002 hPa
Elevation 94
METAR EGNX 151320Z 34017KT 9999 FEW024 06/02 Q1002
Observed Flight Rules
Dec-15 @ 13:20 UTC
(45 minutes ago)
VFR
Wind Visibility
340° at 17 knots 10,000+ meters
Clouds
  • Few at 2,400' AGL
Temperature Dewpoint
6°C / 43°F 2°C / 36°F
Humidity Altimeter Pressure
76% 29.59" Hg 1002 hPa